sensor_id;sensor_type;location;lat;lon;timestamp;temperature;humidity
14301;DHT22;7234;59.306;18.024;2023-12-20T00:01:24;1.60;99.90
14301;DHT22;7234;59.306;18.024;2023-12-20T00:03:51;1.70;99.90
14301;DHT22;7234;59.306;18.024;2023-12-20T00:06:18;1.60;99.90
14301;DHT22;7234;59.306;18.024;2023-12-20T00:08:45;1.60;99.90
14301;DHT22;7234;59.306;18.024;2023-12-20T00:11:13;1.60;99.90
14301;DHT22;7234;59.306;18.024;2023-12-20T00:13:40;1.70;99.90
14301;DHT22;7234;59.306;18.024;2023-12-20T00:16:09;1.60;99.90
14301;DHT22;7234;59.306;18.024;2023-12-20T00:18:35;1.50;99.90
14301;DHT22;7234;59.306;18.024;2023-12-20T00:21:03;1.50;99.90
14301;DHT22;7234;59.306;18.024;2023-12-20T00:23:30;1.40;99.90
14301;DHT22;7234;59.306;18.024;2023-12-20T00:25:57;1.40;99.90
14301;DHT22;7234;59.306;18.024;2023-12-20T00:28:24;1.40;99.90
14301;DHT22;7234;59.306;18.024;2023-12-20T00:30:51;1.40;99.90
14301;DHT22;7234;59.306;18.024;2023-12-20T00:33:19;1.30;99.90
14301;DHT22;7234;59.306;18.024;2023-12-20T00:35:46;1.40;99.90
14301;DHT22;7234;59.306;18.024;2023-12-20T00:38:13;1.30;99.90
14301;DHT22;7234;59.306;18.024;2023-12-20T00:40:40;1.30;99.90
14301;DHT22;7234;59.306;18.024;2023-12-20T00:43:07;1.30;99.90
14301;DHT22;7234;59.306;18.024;2023-12-20T00:45:34;1.20;99.90
14301;DHT22;7234;59.306;18.024;2023-12-20T00:48:01;1.20;99.90
14301;DHT22;7234;59.306;18.024;2023-12-20T00:50:30;1.20;99.90
14301;DHT22;7234;59.306;18.024;2023-12-20T00:52:57;1.20;99.90
14301;DHT22;7234;59.306;18.024;2023-12-20T00:55:24;1.10;99.90
14301;DHT22;7234;59.306;18.024;2023-12-20T00:57:51;1.20;99.90
14301;DHT22;7234;59.306;18.024;2023-12-20T01:00:19;1.10;99.90
14301;DHT22;7234;59.306;18.024;2023-12-20T01:02:46;1.20;99.90
14301;DHT22;7234;59.306;18.024;2023-12-20T01:05:15;1.30;99.90
14301;DHT22;7234;59.306;18.024;2023-12-20T01:07:44;1.10;99.90
14301;DHT22;7234;59.306;18.024;2023-12-20T01:10:11;1.10;99.90
14301;DHT22;7234;59.306;18.024;2023-12-20T01:12:38;1.10;99.90
14301;DHT22;7234;59.306;18.024;2023-12-20T01:15:06;1.10;99.90
14301;DHT22;7234;59.306;18.024;2023-12-20T01:17:33;1.10;99.90
14301;DHT22;7234;59.306;18.024;2023-12-20T01:20:00;1.10;99.90
14301;DHT22;7234;59.306;18.024;2023-12-20T01:22:27;1.00;99.90
14301;DHT22;7234;59.306;18.024;2023-12-20T01:24:55;1.10;99.90
14301;DHT22;7234;59.306;18.024;2023-12-20T01:27:22;1.00;99.90
14301;DHT22;7234;59.306;18.024;2023-12-20T01:29:49;1.00;99.90
14301;DHT22;7234;59.306;18.024;2023-12-20T01:32:16;1.00;99.90
14301;DHT22;7234;59.306;18.024;2023-12-20T01:34:43;1.00;99.90
14301;DHT22;7234;59.306;18.024;2023-12-20T01:37:10;1.00;99.90
14301;DHT22;7234;59.306;18.024;2023-12-20T01:39:37;0.90;99.90
14301;DHT22;7234;59.306;18.024;2023-12-20T01:42:06;0.80;99.90
14301;DHT22;7234;59.306;18.024;2023-12-20T01:44:33;0.80;99.90
14301;DHT22;7234;59.306;18.024;2023-12-20T01:47:00;0.70;99.90
14301;DHT22;7234;59.306;18.024;2023-12-20T01:49:28;0.70;99.90
14301;DHT22;7234;59.306;18.024;2023-12-20T01:51:55;0.70;99.90
14301;DHT22;7234;59.306;18.024;2023-12-20T01:54:22;0.70;99.90
14301;DHT22;7234;59.306;18.024;2023-12-20T01:56:50;0.80;99.90
14301;DHT22;7234;59.306;18.024;2023-12-20T01:59:20;0.70;99.90
14301;DHT22;7234;59.306;18.024;2023-12-20T02:01:47;0.70;99.90
14301;DHT22;7234;59.306;18.024;2023-12-20T02:04:15;0.70;99.90
14301;DHT22;7234;59.306;18.024;2023-12-20T02:06:43;0.60;99.90
14301;DHT22;7234;59.306;18.024;2023-12-20T02:09:10;0.60;99.90
14301;DHT22;7234;59.306;18.024;2023-12-20T02:11:38;0.60;99.90
14301;DHT22;7234;59.306;18.024;2023-12-20T02:14:09;0.60;99.90
14301;DHT22;7234;59.306;18.024;2023-12-20T02:16:37;0.60;99.90
14301;DHT22;7234;59.306;18.024;2023-12-20T02:19:07;0.50;99.90
14301;DHT22;7234;59.306;18.024;2023-12-20T02:21:38;0.50;99.90
14301;DHT22;7234;59.306;18.024;2023-12-20T02:24:05;0.50;99.90
14301;DHT22;7234;59.306;18.024;2023-12-20T02:26:32;0.60;99.90
14301;DHT22;7234;59.306;18.024;2023-12-20T02:29:00;0.50;99.90
14301;DHT22;7234;59.306;18.024;2023-12-20T02:31:27;0.60;99.90
14301;DHT22;7234;59.306;18.024;2023-12-20T02:33:54;0.60;99.90
14301;DHT22;7234;59.306;18.024;2023-12-20T02:36:21;0.60;99.90
14301;DHT22;7234;59.306;18.024;2023-12-20T02:38:50;0.50;99.90
14301;DHT22;7234;59.306;18.024;2023-12-20T02:41:17;0.60;99.90
14301;DHT22;7234;59.306;18.024;2023-12-20T02:43:44;0.80;99.90
14301;DHT22;7234;59.306;18.024;2023-12-20T02:46:12;0.70;99.90
14301;DHT22;7234;59.306;18.024;2023-12-20T02:48:40;0.70;99.90
14301;DHT22;7234;59.306;18.024;2023-12-20T02:51:07;0.80;99.90
14301;DHT22;7234;59.306;18.024;2023-12-20T02:53:34;0.70;99.90
14301;DHT22;7234;59.306;18.024;2023-12-20T02:56:03;0.70;99.90
14301;DHT22;7234;59.306;18.024;2023-12-20T02:58:30;0.60;99.90
14301;DHT22;7234;59.306;18.024;2023-12-20T03:00:57;0.70;99.90
14301;DHT22;7234;59.306;18.024;2023-12-20T03:03:24;0.50;99.90
14301;DHT22;7234;59.306;18.024;2023-12-20T03:05:52;0.50;99.90
14301;DHT22;7234;59.306;18.024;2023-12-20T03:08:19;0.40;99.90
14301;DHT22;7234;59.306;18.024;2023-12-20T03:10:46;0.40;99.90
14301;DHT22;7234;59.306;18.024;2023-12-20T03:13:14;0.50;99.90
14301;DHT22;7234;59.306;18.024;2023-12-20T03:15:41;0.50;99.90
14301;DHT22;7234;59.306;18.024;2023-12-20T03:18:08;0.60;99.90
14301;DHT22;7234;59.306;18.024;2023-12-20T03:20:35;0.70;99.90
14301;DHT22;7234;59.306;18.024;2023-12-20T03:23:04;0.60;99.90
14301;DHT22;7234;59.306;18.024;2023-12-20T03:25:31;0.60;99.90
14301;DHT22;7234;59.306;18.024;2023-12-20T03:27:58;0.80;99.90
14301;DHT22;7234;59.306;18.024;2023-12-20T03:30:26;0.70;99.90
14301;DHT22;7234;59.306;18.024;2023-12-20T03:32:53;0.70;99.90
14301;DHT22;7234;59.306;18.024;2023-12-20T03:35:20;0.70;99.90
14301;DHT22;7234;59.306;18.024;2023-12-20T03:37:47;0.70;99.90
14301;DHT22;7234;59.306;18.024;2023-12-20T03:40:14;0.80;99.90
14301;DHT22;7234;59.306;18.024;2023-12-20T03:42:41;0.80;99.90
14301;DHT22;7234;59.306;18.024;2023-12-20T03:45:09;0.80;99.90
14301;DHT22;7234;59.306;18.024;2023-12-20T03:47:37;0.70;99.90
14301;DHT22;7234;59.306;18.024;2023-12-20T03:50:05;0.60;99.90
14301;DHT22;7234;59.306;18.024;2023-12-20T03:52:32;0.60;99.90
14301;DHT22;7234;59.306;18.024;2023-12-20T03:54:59;0.70;99.90
14301;DHT22;7234;59.306;18.024;2023-12-20T03:57:26;0.70;99.90
14301;DHT22;7234;59.306;18.024;2023-12-20T03:59:53;0.50;99.90
14301;DHT22;7234;59.306;18.024;2023-12-20T04:02:20;0.50;99.90
14301;DHT22;7234;59.306;18.024;2023-12-20T04:04:49;0.60;99.90
14301;DHT22;7234;59.306;18.024;2023-12-20T04:07:16;0.60;99.90
14301;DHT22;7234;59.306;18.024;2023-12-20T04:09:42;0.60;99.90
14301;DHT22;7234;59.306;18.024;2023-12-20T04:12:10;0.60;99.90
14301;DHT22;7234;59.306;18.024;2023-12-20T04:14:36;0.60;99.90
14301;DHT22;7234;59.306;18.024;2023-12-20T04:17:03;0.80;99.90
14301;DHT22;7234;59.306;18.024;2023-12-20T04:19:30;0.70;99.90
14301;DHT22;7234;59.306;18.024;2023-12-20T04:21:59;0.70;99.90
14301;DHT22;7234;59.306;18.024;2023-12-20T04:24:26;0.70;99.90
14301;DHT22;7234;59.306;18.024;2023-12-20T04:26:53;0.80;99.90
14301;DHT22;7234;59.306;18.024;2023-12-20T04:29:20;0.70;99.90
14301;DHT22;7234;59.306;18.024;2023-12-20T04:31:47;0.70;99.90
14301;DHT22;7234;59.306;18.024;2023-12-20T04:34:15;0.60;99.90
14301;DHT22;7234;59.306;18.024;2023-12-20T04:36:42;0.60;99.90
14301;DHT22;7234;59.306;18.024;2023-12-20T04:39:12;0.70;99.90
14301;DHT22;7234;59.306;18.024;2023-12-20T04:41:40;0.80;99.90
14301;DHT22;7234;59.306;18.024;2023-12-20T04:44:07;0.70;99.90
14301;DHT22;7234;59.306;18.024;2023-12-20T04:46:34;0.70;99.90
14301;DHT22;7234;59.306;18.024;2023-12-20T04:49:01;0.70;99.90
14301;DHT22;7234;59.306;18.024;2023-12-20T04:51:28;0.70;99.90
14301;DHT22;7234;59.306;18.024;2023-12-20T04:53:55;0.70;99.90
14301;DHT22;7234;59.306;18.024;2023-12-20T04:56:24;0.80;99.90
14301;DHT22;7234;59.306;18.024;2023-12-20T04:58:51;0.70;99.90
14301;DHT22;7234;59.306;18.024;2023-12-20T05:01:18;0.70;99.90
14301;DHT22;7234;59.306;18.024;2023-12-20T05:03:46;0.70;99.90
14301;DHT22;7234;59.306;18.024;2023-12-20T05:06:13;0.80;99.90
14301;DHT22;7234;59.306;18.024;2023-12-20T05:08:40;0.80;99.90
14301;DHT22;7234;59.306;18.024;2023-12-20T05:11:07;0.90;99.90
14301;DHT22;7234;59.306;18.024;2023-12-20T05:13:36;0.80;99.90
14301;DHT22;7234;59.306;18.024;2023-12-20T05:16:03;0.70;99.90
14301;DHT22;7234;59.306;18.024;2023-12-20T05:18:31;0.70;99.90
14301;DHT22;7234;59.306;18.024;2023-12-20T05:20:58;0.70;99.90
14301;DHT22;7234;59.306;18.024;2023-12-20T05:23:25;0.60;99.90
14301;DHT22;7234;59.306;18.024;2023-12-20T05:25:52;0.70;99.90
14301;DHT22;7234;59.306;18.024;2023-12-20T05:28:19;0.70;99.90
14301;DHT22;7234;59.306;18.024;2023-12-20T05:30:47;0.70;99.90
14301;DHT22;7234;59.306;18.024;2023-12-20T05:33:14;0.70;99.90
14301;DHT22;7234;59.306;18.024;2023-12-20T05:35:41;0.80;99.90
14301;DHT22;7234;59.306;18.024;2023-12-20T05:38:08;0.70;99.90
14301;DHT22;7234;59.306;18.024;2023-12-20T05:40:35;0.70;99.90
14301;DHT22;7234;59.306;18.024;2023-12-20T05:43:02;0.70;99.90
14301;DHT22;7234;59.306;18.024;2023-12-20T05:45:29;0.80;99.90
14301;DHT22;7234;59.306;18.024;2023-12-20T05:47:58;0.80;99.90
14301;DHT22;7234;59.306;18.024;2023-12-20T05:50:25;0.90;99.90
14301;DHT22;7234;59.306;18.024;2023-12-20T05:52:52;0.90;99.90
14301;DHT22;7234;59.306;18.024;2023-12-20T05:55:19;0.90;99.90
14301;DHT22;7234;59.306;18.024;2023-12-20T05:57:46;0.80;99.90
14301;DHT22;7234;59.306;18.024;2023-12-20T06:00:14;0.80;99.90
14301;DHT22;7234;59.306;18.024;2023-12-20T06:02:42;0.80;99.90
14301;DHT22;7234;59.306;18.024;2023-12-20T06:05:11;0.80;99.90
14301;DHT22;7234;59.306;18.024;2023-12-20T06:07:38;0.90;99.90
14301;DHT22;7234;59.306;18.024;2023-12-20T06:10:05;1.00;99.90
14301;DHT22;7234;59.306;18.024;2023-12-20T06:12:32;0.90;99.90
14301;DHT22;7234;59.306;18.024;2023-12-20T06:15:01;0.90;99.90
14301;DHT22;7234;59.306;18.024;2023-12-20T06:17:28;0.90;99.90
14301;DHT22;7234;59.306;18.024;2023-12-20T06:19:57;1.00;99.90
14301;DHT22;7234;59.306;18.024;2023-12-20T06:22:25;1.00;99.90
14301;DHT22;7234;59.306;18.024;2023-12-20T06:24:52;1.00;99.90
14301;DHT22;7234;59.306;18.024;2023-12-20T06:27:19;1.00;99.90
14301;DHT22;7234;59.306;18.024;2023-12-20T06:29:46;1.00;99.90
14301;DHT22;7234;59.306;18.024;2023-12-20T06:32:13;0.90;99.90
14301;DHT22;7234;59.306;18.024;2023-12-20T06:34:40;0.90;99.90
14301;DHT22;7234;59.306;18.024;2023-12-20T06:37:07;1.00;99.90
14301;DHT22;7234;59.306;18.024;2023-12-20T06:39:35;1.00;99.90
14301;DHT22;7234;59.306;18.024;2023-12-20T06:42:03;1.00;99.90
14301;DHT22;7234;59.306;18.024;2023-12-20T06:44:30;0.90;99.90
14301;DHT22;7234;59.306;18.024;2023-12-20T06:46:58;0.80;99.90
14301;DHT22;7234;59.306;18.024;2023-12-20T06:49:25;0.80;99.90
14301;DHT22;7234;59.306;18.024;2023-12-20T06:51:52;0.80;99.90
14301;DHT22;7234;59.306;18.024;2023-12-20T06:54:19;0.70;99.90
14301;DHT22;7234;59.306;18.024;2023-12-20T06:56:47;0.70;99.90
14301;DHT22;7234;59.306;18.024;2023-12-20T06:59:14;0.70;99.90
14301;DHT22;7234;59.306;18.024;2023-12-20T07:01:41;0.80;99.90
14301;DHT22;7234;59.306;18.024;2023-12-20T07:04:09;0.80;99.90
14301;DHT22;7234;59.306;18.024;2023-12-20T07:06:36;0.80;99.90
14301;DHT22;7234;59.306;18.024;2023-12-20T07:09:03;0.90;99.90
14301;DHT22;7234;59.306;18.024;2023-12-20T07:11:30;0.90;99.90
14301;DHT22;7234;59.306;18.024;2023-12-20T07:13:59;0.90;99.90
14301;DHT22;7234;59.306;18.024;2023-12-20T07:16:27;1.10;99.90
14301;DHT22;7234;59.306;18.024;2023-12-20T07:18:54;1.10;99.90
14301;DHT22;7234;59.306;18.024;2023-12-20T07:21:22;1.00;99.90
14301;DHT22;7234;59.306;18.024;2023-12-20T07:23:49;1.00;99.90
14301;DHT22;7234;59.306;18.024;2023-12-20T07:26:17;1.10;99.90
14301;DHT22;7234;59.306;18.024;2023-12-20T07:28:44;1.00;99.90
14301;DHT22;7234;59.306;18.024;2023-12-20T07:31:12;1.00;99.90
14301;DHT22;7234;59.306;18.024;2023-12-20T07:33:41;1.00;99.90
14301;DHT22;7234;59.306;18.024;2023-12-20T07:36:08;1.00;99.90
14301;DHT22;7234;59.306;18.024;2023-12-20T07:38:35;1.00;99.90
14301;DHT22;7234;59.306;18.024;2023-12-20T07:41:03;1.10;99.90
14301;DHT22;7234;59.306;18.024;2023-12-20T07:43:30;1.00;99.90
14301;DHT22;7234;59.306;18.024;2023-12-20T07:45:57;1.00;99.90
14301;DHT22;7234;59.306;18.024;2023-12-20T07:48:25;1.00;99.90
14301;DHT22;7234;59.306;18.024;2023-12-20T07:50:52;1.10;99.90
14301;DHT22;7234;59.306;18.024;2023-12-20T07:53:19;1.10;99.90
14301;DHT22;7234;59.306;18.024;2023-12-20T07:55:46;1.20;99.90
14301;DHT22;7234;59.306;18.024;2023-12-20T07:58:14;1.20;99.90
14301;DHT22;7234;59.306;18.024;2023-12-20T08:00:41;1.10;99.90
14301;DHT22;7234;59.306;18.024;2023-12-20T08:03:08;1.10;99.90
14301;DHT22;7234;59.306;18.024;2023-12-20T08:05:38;1.10;99.90
14301;DHT22;7234;59.306;18.024;2023-12-20T08:08:06;1.10;99.90
14301;DHT22;7234;59.306;18.024;2023-12-20T08:10:33;1.20;99.90
14301;DHT22;7234;59.306;18.024;2023-12-20T08:13:00;1.10;99.90
14301;DHT22;7234;59.306;18.024;2023-12-20T08:15:27;1.10;99.90
14301;DHT22;7234;59.306;18.024;2023-12-20T08:17:54;1.20;99.90
14301;DHT22;7234;59.306;18.024;2023-12-20T08:20:21;1.20;99.90
14301;DHT22;7234;59.306;18.024;2023-12-20T08:22:49;1.20;99.90
14301;DHT22;7234;59.306;18.024;2023-12-20T08:25:16;1.20;99.90
14301;DHT22;7234;59.306;18.024;2023-12-20T08:27:43;1.30;99.90
14301;DHT22;7234;59.306;18.024;2023-12-20T08:30:11;1.30;99.90
14301;DHT22;7234;59.306;18.024;2023-12-20T08:32:38;1.20;99.90
14301;DHT22;7234;59.306;18.024;2023-12-20T08:35:05;1.20;99.90
14301;DHT22;7234;59.306;18.024;2023-12-20T08:37:32;1.20;99.90
14301;DHT22;7234;59.306;18.024;2023-12-20T08:40:01;1.30;99.90
14301;DHT22;7234;59.306;18.024;2023-12-20T08:42:28;1.20;99.90
14301;DHT22;7234;59.306;18.024;2023-12-20T08:44:58;1.20;99.90
14301;DHT22;7234;59.306;18.024;2023-12-20T08:47:25;1.20;99.90
14301;DHT22;7234;59.306;18.024;2023-12-20T08:49:52;1.30;99.90
14301;DHT22;7234;59.306;18.024;2023-12-20T08:52:22;1.30;99.90
14301;DHT22;7234;59.306;18.024;2023-12-20T08:54:49;1.40;99.90
14301;DHT22;7234;59.306;18.024;2023-12-20T08:57:19;1.40;99.90
14301;DHT22;7234;59.306;18.024;2023-12-20T08:59:46;1.30;99.90
14301;DHT22;7234;59.306;18.024;2023-12-20T09:02:14;1.40;99.90
14301;DHT22;7234;59.306;18.024;2023-12-20T09:04:41;1.40;99.90
14301;DHT22;7234;59.306;18.024;2023-12-20T09:07:21;1.50;99.90
14301;DHT22;7234;59.306;18.024;2023-12-20T09:09:48;1.50;99.90
14301;DHT22;7234;59.306;18.024;2023-12-20T09:12:15;1.50;99.90
14301;DHT22;7234;59.306;18.024;2023-12-20T09:14:43;1.50;99.90
14301;DHT22;7234;59.306;18.024;2023-12-20T09:17:10;1.60;99.90
14301;DHT22;7234;59.306;18.024;2023-12-20T09:19:38;1.60;99.90
14301;DHT22;7234;59.306;18.024;2023-12-20T09:22:06;1.70;99.90
14301;DHT22;7234;59.306;18.024;2023-12-20T09:24:33;1.70;99.90
14301;DHT22;7234;59.306;18.024;2023-12-20T09:27:00;1.70;99.90
14301;DHT22;7234;59.306;18.024;2023-12-20T09:29:28;1.70;99.90
14301;DHT22;7234;59.306;18.024;2023-12-20T09:31:57;1.70;99.90
14301;DHT22;7234;59.306;18.024;2023-12-20T09:34:24;1.70;99.90
14301;DHT22;7234;59.306;18.024;2023-12-20T09:36:55;1.80;99.90
14301;DHT22;7234;59.306;18.024;2023-12-20T09:39:22;1.70;99.90
14301;DHT22;7234;59.306;18.024;2023-12-20T09:41:59;1.70;99.90
14301;DHT22;7234;59.306;18.024;2023-12-20T09:44:27;1.80;99.90
14301;DHT22;7234;59.306;18.024;2023-12-20T09:46:57;1.90;99.90
14301;DHT22;7234;59.306;18.024;2023-12-20T09:49:25;1.90;99.90
14301;DHT22;7234;59.306;18.024;2023-12-20T09:51:54;1.90;99.90
14301;DHT22;7234;59.306;18.024;2023-12-20T09:54:22;1.90;99.90
14301;DHT22;7234;59.306;18.024;2023-12-20T09:56:49;1.90;99.90
14301;DHT22;7234;59.306;18.024;2023-12-20T09:59:16;1.90;99.90
14301;DHT22;7234;59.306;18.024;2023-12-20T10:01:44;2.00;99.90
14301;DHT22;7234;59.306;18.024;2023-12-20T10:04:13;2.20;99.90
14301;DHT22;7234;59.306;18.024;2023-12-20T10:06:40;2.00;99.90
14301;DHT22;7234;59.306;18.024;2023-12-20T10:09:07;2.10;99.90
14301;DHT22;7234;59.306;18.024;2023-12-20T10:11:35;2.20;99.90
14301;DHT22;7234;59.306;18.024;2023-12-20T10:14:05;2.20;99.90
14301;DHT22;7234;59.306;18.024;2023-12-20T10:16:33;2.10;99.90
14301;DHT22;7234;59.306;18.024;2023-12-20T10:19:01;2.10;99.90
14301;DHT22;7234;59.306;18.024;2023-12-20T10:21:29;2.20;99.90
14301;DHT22;7234;59.306;18.024;2023-12-20T10:23:57;2.20;99.90
14301;DHT22;7234;59.306;18.024;2023-12-20T10:26:25;2.30;99.90
14301;DHT22;7234;59.306;18.024;2023-12-20T10:28:54;2.30;99.90
14301;DHT22;7234;59.306;18.024;2023-12-20T10:31:28;2.30;99.90
14301;DHT22;7234;59.306;18.024;2023-12-20T10:33:57;2.40;99.90
14301;DHT22;7234;59.306;18.024;2023-12-20T10:36:25;2.30;99.90
14301;DHT22;7234;59.306;18.024;2023-12-20T10:38:55;2.30;99.90
14301;DHT22;7234;59.306;18.024;2023-12-20T10:41:25;2.30;99.90
14301;DHT22;7234;59.306;18.024;2023-12-20T10:43:57;2.30;99.90
14301;DHT22;7234;59.306;18.024;2023-12-20T10:46:26;2.30;99.90
14301;DHT22;7234;59.306;18.024;2023-12-20T10:48:54;2.30;99.90
14301;DHT22;7234;59.306;18.024;2023-12-20T10:51:22;2.30;99.90
14301;DHT22;7234;59.306;18.024;2023-12-20T10:53:53;2.40;99.90
14301;DHT22;7234;59.306;18.024;2023-12-20T10:56:20;2.30;99.90
14301;DHT22;7234;59.306;18.024;2023-12-20T10:58:49;2.30;99.90
14301;DHT22;7234;59.306;18.024;2023-12-20T11:01:17;2.30;99.90
14301;DHT22;7234;59.306;18.024;2023-12-20T11:03:51;2.40;99.90
14301;DHT22;7234;59.306;18.024;2023-12-20T11:06:32;2.30;99.90
14301;DHT22;7234;59.306;18.024;2023-12-20T11:09:10;2.30;99.90
14301;DHT22;7234;59.306;18.024;2023-12-20T11:11:46;2.30;99.90
14301;DHT22;7234;59.306;18.024;2023-12-20T11:14:22;2.20;99.90
14301;DHT22;7234;59.306;18.024;2023-12-20T11:16:50;2.30;99.90
14301;DHT22;7234;59.306;18.024;2023-12-20T11:19:17;2.40;99.90
14301;DHT22;7234;59.306;18.024;2023-12-20T11:21:46;2.40;99.90
14301;DHT22;7234;59.306;18.024;2023-12-20T11:24:15;2.30;99.90
14301;DHT22;7234;59.306;18.024;2023-12-20T11:26:47;2.30;99.90
14301;DHT22;7234;59.306;18.024;2023-12-20T11:29:34;2.30;99.90
14301;DHT22;7234;59.306;18.024;2023-12-20T11:32:02;2.30;99.90
14301;DHT22;7234;59.306;18.024;2023-12-20T11:34:32;2.20;99.90
14301;DHT22;7234;59.306;18.024;2023-12-20T11:37:00;2.40;99.90
14301;DHT22;7234;59.306;18.024;2023-12-20T11:39:28;2.30;99.90
14301;DHT22;7234;59.306;18.024;2023-12-20T11:41:57;2.40;99.90
14301;DHT22;7234;59.306;18.024;2023-12-20T11:44:30;2.30;99.90
14301;DHT22;7234;59.306;18.024;2023-12-20T11:46:58;2.30;99.90
14301;DHT22;7234;59.306;18.024;2023-12-20T11:49:25;2.40;99.90
14301;DHT22;7234;59.306;18.024;2023-12-20T11:51:54;2.40;99.90
14301;DHT22;7234;59.306;18.024;2023-12-20T11:54:21;2.50;99.90
14301;DHT22;7234;59.306;18.024;2023-12-20T11:56:50;2.50;99.90
14301;DHT22;7234;59.306;18.024;2023-12-20T11:59:17;2.40;99.90
14301;DHT22;7234;59.306;18.024;2023-12-20T12:01:48;2.50;99.90
14301;DHT22;7234;59.306;18.024;2023-12-20T12:04:16;2.60;99.90
14301;DHT22;7234;59.306;18.024;2023-12-20T12:06:45;2.50;99.90
14301;DHT22;7234;59.306;18.024;2023-12-20T12:09:12;2.40;99.90
14301;DHT22;7234;59.306;18.024;2023-12-20T12:11:40;2.30;99.90
14301;DHT22;7234;59.306;18.024;2023-12-20T12:14:09;2.30;99.90
14301;DHT22;7234;59.306;18.024;2023-12-20T12:16:36;2.30;99.90
14301;DHT22;7234;59.306;18.024;2023-12-20T12:19:03;2.20;99.90
14301;DHT22;7234;59.306;18.024;2023-12-20T12:21:30;2.10;99.90
14301;DHT22;7234;59.306;18.024;2023-12-20T12:24:07;2.10;99.90
14301;DHT22;7234;59.306;18.024;2023-12-20T12:26:34;2.20;99.90
14301;DHT22;7234;59.306;18.024;2023-12-20T12:29:01;2.10;99.90
14301;DHT22;7234;59.306;18.024;2023-12-20T12:31:30;2.10;99.90
14301;DHT22;7234;59.306;18.024;2023-12-20T12:33:57;2.10;99.90
14301;DHT22;7234;59.306;18.024;2023-12-20T12:36:24;2.00;99.90
14301;DHT22;7234;59.306;18.024;2023-12-20T12:38:51;2.00;99.90
14301;DHT22;7234;59.306;18.024;2023-12-20T12:41:18;2.00;99.90
14301;DHT22;7234;59.306;18.024;2023-12-20T12:43:45;1.90;99.90
14301;DHT22;7234;59.306;18.024;2023-12-20T12:46:12;2.00;99.90
14301;DHT22;7234;59.306;18.024;2023-12-20T12:48:41;2.00;99.90
14301;DHT22;7234;59.306;18.024;2023-12-20T12:51:08;2.10;99.90
14301;DHT22;7234;59.306;18.024;2023-12-20T12:53:38;1.90;99.90
14301;DHT22;7234;59.306;18.024;2023-12-20T12:56:06;2.00;99.90
14301;DHT22;7234;59.306;18.024;2023-12-20T12:58:33;1.90;99.90
14301;DHT22;7234;59.306;18.024;2023-12-20T13:01:00;2.00;99.90
14301;DHT22;7234;59.306;18.024;2023-12-20T13:03:27;2.00;99.90
14301;DHT22;7234;59.306;18.024;2023-12-20T13:05:55;2.00;99.90
14301;DHT22;7234;59.306;18.024;2023-12-20T13:08:22;2.00;99.90
14301;DHT22;7234;59.306;18.024;2023-12-20T13:10:49;2.00;99.90
14301;DHT22;7234;59.306;18.024;2023-12-20T13:13:16;2.10;99.90
14301;DHT22;7234;59.306;18.024;2023-12-20T13:15:44;2.00;99.90
14301;DHT22;7234;59.306;18.024;2023-12-20T13:18:16;2.00;99.90
14301;DHT22;7234;59.306;18.024;2023-12-20T13:20:43;2.00;99.90
14301;DHT22;7234;59.306;18.024;2023-12-20T13:23:13;2.10;99.90
14301;DHT22;7234;59.306;18.024;2023-12-20T13:25:40;2.00;99.90
14301;DHT22;7234;59.306;18.024;2023-12-20T13:28:07;2.00;99.90
14301;DHT22;7234;59.306;18.024;2023-12-20T13:30:35;2.00;99.90
14301;DHT22;7234;59.306;18.024;2023-12-20T13:33:02;2.10;99.90
14301;DHT22;7234;59.306;18.024;2023-12-20T13:35:29;2.10;99.90
14301;DHT22;7234;59.306;18.024;2023-12-20T13:37:56;2.00;99.90
14301;DHT22;7234;59.306;18.024;2023-12-20T13:40:24;2.00;99.90
14301;DHT22;7234;59.306;18.024;2023-12-20T13:42:51;2.00;99.90
14301;DHT22;7234;59.306;18.024;2023-12-20T13:45:20;2.00;99.90
14301;DHT22;7234;59.306;18.024;2023-12-20T13:47:48;2.10;99.90
14301;DHT22;7234;59.306;18.024;2023-12-20T13:50:15;2.10;99.90
14301;DHT22;7234;59.306;18.024;2023-12-20T13:52:42;2.20;99.90
14301;DHT22;7234;59.306;18.024;2023-12-20T13:55:09;2.10;99.90
14301;DHT22;7234;59.306;18.024;2023-12-20T13:57:37;2.00;99.90
14301;DHT22;7234;59.306;18.024;2023-12-20T14:00:08;2.10;99.90
14301;DHT22;7234;59.306;18.024;2023-12-20T14:02:41;2.20;99.90
14301;DHT22;7234;59.306;18.024;2023-12-20T14:05:08;2.30;99.90
14301;DHT22;7234;59.306;18.024;2023-12-20T14:07:36;2.10;99.90
14301;DHT22;7234;59.306;18.024;2023-12-20T14:10:04;2.20;99.90
14301;DHT22;7234;59.306;18.024;2023-12-20T14:12:31;2.20;99.90
14301;DHT22;7234;59.306;18.024;2023-12-20T14:15:03;2.20;99.90
14301;DHT22;7234;59.306;18.024;2023-12-20T14:17:34;2.20;99.90
14301;DHT22;7234;59.306;18.024;2023-12-20T14:20:01;2.20;99.90
14301;DHT22;7234;59.306;18.024;2023-12-20T14:22:29;2.20;99.90
14301;DHT22;7234;59.306;18.024;2023-12-20T14:24:56;2.20;99.90
14301;DHT22;7234;59.306;18.024;2023-12-20T14:27:24;2.20;99.90
14301;DHT22;7234;59.306;18.024;2023-12-20T14:29:53;2.30;99.90
14301;DHT22;7234;59.306;18.024;2023-12-20T14:32:21;2.30;99.90
14301;DHT22;7234;59.306;18.024;2023-12-20T14:34:48;2.30;99.90
14301;DHT22;7234;59.306;18.024;2023-12-20T14:37:15;2.40;99.90
14301;DHT22;7234;59.306;18.024;2023-12-20T14:39:43;2.40;99.90
14301;DHT22;7234;59.306;18.024;2023-12-20T14:42:10;2.40;99.90
14301;DHT22;7234;59.306;18.024;2023-12-20T14:44:39;2.40;99.90
14301;DHT22;7234;59.306;18.024;2023-12-20T14:47:07;2.40;99.90
14301;DHT22;7234;59.306;18.024;2023-12-20T14:49:35;2.40;99.90
14301;DHT22;7234;59.306;18.024;2023-12-20T14:52:03;2.50;99.90
14301;DHT22;7234;59.306;18.024;2023-12-20T14:54:30;2.40;99.90
14301;DHT22;7234;59.306;18.024;2023-12-20T14:56:57;2.50;99.90
14301;DHT22;7234;59.306;18.024;2023-12-20T14:59:24;2.50;99.90
14301;DHT22;7234;59.306;18.024;2023-12-20T15:01:51;2.50;99.90
14301;DHT22;7234;59.306;18.024;2023-12-20T15:04:18;2.50;99.90
14301;DHT22;7234;59.306;18.024;2023-12-20T15:06:52;2.50;99.90
14301;DHT22;7234;59.306;18.024;2023-12-20T15:09:22;2.60;99.90
14301;DHT22;7234;59.306;18.024;2023-12-20T15:11:49;2.50;99.90
14301;DHT22;7234;59.306;18.024;2023-12-20T15:14:16;2.60;99.90
14301;DHT22;7234;59.306;18.024;2023-12-20T15:16:45;2.60;99.90
14301;DHT22;7234;59.306;18.024;2023-12-20T15:19:13;2.60;99.90
14301;DHT22;7234;59.306;18.024;2023-12-20T15:21:40;2.60;99.90
14301;DHT22;7234;59.306;18.024;2023-12-20T15:24:09;2.70;99.90
14301;DHT22;7234;59.306;18.024;2023-12-20T15:26:40;2.70;99.90
14301;DHT22;7234;59.306;18.024;2023-12-20T15:29:08;2.70;99.90
14301;DHT22;7234;59.306;18.024;2023-12-20T15:31:36;2.70;99.90
14301;DHT22;7234;59.306;18.024;2023-12-20T15:34:03;2.70;99.90
14301;DHT22;7234;59.306;18.024;2023-12-20T15:36:30;2.80;99.90
14301;DHT22;7234;59.306;18.024;2023-12-20T15:38:57;2.80;99.90
14301;DHT22;7234;59.306;18.024;2023-12-20T15:41:26;2.80;99.90
14301;DHT22;7234;59.306;18.024;2023-12-20T15:43:53;2.90;99.90
14301;DHT22;7234;59.306;18.024;2023-12-20T15:46:21;2.70;99.90
14301;DHT22;7234;59.306;18.024;2023-12-20T15:48:48;2.70;99.90